Time;durP1;ratioP1;P1;durP2;ratioP2;P2;SDS_P1;SDS_P2;PMS_P1;PMS_P2;Temp;Humidity;BMP_temperature;BMP_pressure;BME280_temperature;BME280_humidity;BME280_pressure;Samples;Min_cycle;Max_cycle;Signal;HPM_P1;HPM_P2
2023/05/17 00:02:13;;;;;;;;;;;;;;;;;;6106807;23;19921;-81
2023/05/17 00:04:40;;;;;;;;;;;;;;;;;;6081108;23;19929;-82
2023/05/17 00:07:07;;;;;;;;;;;;;;;;;;6082355;23;19932;-82
2023/05/17 00:09:34;;;;;;;;;;;;;;;;;;6082365;23;19921;-82
2023/05/17 00:12:07;;;;;;;;;;;;;;;;;;6115764;23;19921;-82
2023/05/17 00:14:34;;;;;;;;;;;;;;;;;;6082807;23;20254;-82
2023/05/17 00:17:01;;;;;;;;;;;;;;;;;;6080427;23;19920;-82
2023/05/17 00:19:30;;;;;;;;;;;;;;;;;;6105761;23;19920;-82
2023/05/17 00:21:57;;;;;;;;;;;;;;;;;;6083103;23;19921;-82
2023/05/17 00:24:26;;;;;;;;;;;;;;;;;;6105828;23;19921;-82
2023/05/17 00:26:55;;;;;;;;;;;;;;;;;;6105335;23;19928;-82
2023/05/17 00:29:22;;;;;;;;;;;;;;;;;;6095186;23;19920;-82
2023/05/17 00:31:54;;;;;;;;;;;;;;;;;;6134719;23;19920;-82
2023/05/17 00:34:21;;;;;;;;;;;;;;;;;;6109179;23;19921;-81
2023/05/17 00:36:50;;;;;;;;;;;;;;;;;;6085291;23;19920;-81
2023/05/17 00:39:19;;;;;;;;;;;;;;;;;;6108754;23;19927;-82
2023/05/17 00:41:49;;;;;;;;;;;;;;;;;;6085364;23;20241;-82
2023/05/17 00:44:16;;;;;;;;;;;;;;;;;;6086676;23;19921;-81
2023/05/17 00:46:49;;;;;;;;;;;;;;;;;;6087510;23;19921;-81
2023/05/17 00:49:16;;;;;;;;;;;;;;;;;;6086069;23;19921;-81
2023/05/17 00:51:43;;;;;;;;;;;;;;;;;;6134973;23;19921;-81
2023/05/17 00:54:14;;;;;;;;;;;;;;;;;;6087921;23;20253;-81
2023/05/17 00:56:41;;;;;;;;;;;;;;;;;;6112848;23;19928;-81
2023/05/17 00:59:08;;;;;;;;;;;;;;;;;;6113239;23;19931;-82
2023/05/17 01:01:37;;;;;;;;;;;;;;;;;;6109026;23;19940;-81
2023/05/17 01:04:07;;;;;;;;;;;;;;;;;;6086745;23;19921;-82
2023/05/17 01:06:37;;;;;;;;;;;;;;;;;;6085029;23;19921;-81
2023/05/17 01:09:07;;;;;;;;;;;;;;;;;;6107308;23;19927;-82
2023/05/17 01:11:38;;;;;;;;;;;;;;;;;;6107612;23;19927;-82
2023/05/17 01:14:07;;;;;;;;;;;;;;;;;;6084454;23;19921;-82
2023/05/17 01:16:38;;;;;;;;;;;;;;;;;;6083807;23;19921;-82
2023/05/17 01:19:10;;;;;;;;;;;;;;;;;;6082996;23;19928;-82
2023/05/17 01:21:40;;;;;;;;;;;;;;;;;;6082619;23;19926;-82
2023/05/17 01:24:13;;;;;;;;;;;;;;;;;;6108371;23;19921;-82
2023/05/17 01:26:43;;;;;;;;;;;;;;;;;;6083807;23;19925;-82
2023/05/17 01:29:10;;;;;;;;;;;;;;;;;;6083455;23;19921;-82
2023/05/17 01:31:39;;;;;;;;;;;;;;;;;;6108689;23;19921;-82
2023/05/17 01:34:06;;;;;;;;;;;;;;;;;;6083959;23;19927;-82
2023/05/17 01:36:37;;;;;;;;;;;;;;;;;;6143952;23;19927;-82
2023/05/17 01:39:04;;;;;;;;;;;;;;;;;;6084768;23;19920;-83
2023/05/17 01:41:34;;;;;;;;;;;;;;;;;;6134300;23;20363;-82
2023/05/17 01:44:05;;;;;;;;;;;;;;;;;;6083109;23;19931;-83
2023/05/17 01:46:38;;;;;;;;;;;;;;;;;;6084138;23;19943;-83
2023/05/17 01:49:18;;;;;;;;;;;;;;;;;;6084528;23;19921;-82
2023/05/17 01:51:46;;;;;;;;;;;;;;;;;;6143169;23;19920;-82
2023/05/17 01:54:23;;;;;;;;;;;;;;;;;;6084625;23;19921;-82
2023/05/17 01:56:55;;;;;;;;;;;;;;;;;;6118839;23;19931;-82
2023/05/17 01:59:25;;;;;;;;;;;;;;;;;;6083768;23;19928;-82
2023/05/17 02:01:55;;;;;;;;;;;;;;;;;;6083870;23;20257;-82
2023/05/17 02:04:22;;;;;;;;;;;;;;;;;;6107497;23;19928;-82
2023/05/17 02:06:52;;;;;;;;;;;;;;;;;;6083524;23;19939;-82
2023/05/17 02:09:25;;;;;;;;;;;;;;;;;;6107938;23;19921;-82
2023/05/17 02:11:55;;;;;;;;;;;;;;;;;;6107888;23;19921;-82
2023/05/17 02:14:24;;;;;;;;;;;;;;;;;;6085124;23;19969;-82
2023/05/17 02:16:51;;;;;;;;;;;;;;;;;;6083585;23;19935;-82
2023/05/17 02:19:18;;;;;;;;;;;;;;;;;;6083177;23;19925;-82
2023/05/17 02:21:45;;;;;;;;;;;;;;;;;;6130748;23;20235;-82
2023/05/17 02:24:12;;;;;;;;;;;;;;;;;;6133830;23;19928;-82
2023/05/17 02:26:42;;;;;;;;;;;;;;;;;;6108004;23;19925;-82
2023/05/17 02:29:11;;;;;;;;;;;;;;;;;;6131325;23;19940;-82
2023/05/17 02:32:05;;;;;;;;;;;;;;;;;;6106928;23;19921;-82
2023/05/17 02:34:34;;;;;;;;;;;;;;;;;;6083810;23;19921;-82
2023/05/17 02:37:01;;;;;;;;;;;;;;;;;;6083927;23;20234;-82
2023/05/17 02:39:28;;;;;;;;;;;;;;;;;;6106863;23;19932;-82
2023/05/17 02:42:01;;;;;;;;;;;;;;;;;;6085065;23;19925;-82
2023/05/17 02:44:28;;;;;;;;;;;;;;;;;;6109316;23;19925;-82
2023/05/17 02:46:55;;;;;;;;;;;;;;;;;;6084563;23;19927;-82
2023/05/17 02:49:48;;;;;;;;;;;;;;;;;;6106853;23;19921;-82
2023/05/17 02:52:17;;;;;;;;;;;;;;;;;;6084248;23;19929;-82
2023/05/17 02:54:44;;;;;;;;;;;;;;;;;;6107604;23;19928;-82
2023/05/17 02:57:11;;;;;;;;;;;;;;;;;;6132756;23;19931;-82
2023/05/17 03:00:07;;;;;;;;;;;;;;;;;;6105750;23;19921;-82
2023/05/17 03:02:34;;;;;;;;;;;;;;;;;;6142811;23;19921;-82
2023/05/17 03:05:05;;;;;;;;;;;;;;;;;;6107826;23;19925;-82
2023/05/17 03:07:32;;;;;;;;;;;;;;;;;;6107459;23;19921;-82
2023/05/17 03:10:00;;;;;;;;;;;;;;;;;;6108821;23;19920;-82
2023/05/17 03:12:31;;;;;;;;;;;;;;;;;;6117215;23;19921;-83
2023/05/17 03:15:01;;;;;;;;;;;;;;;;;;6107675;23;19925;-82
2023/05/17 03:17:28;;;;;;;;;;;;;;;;;;6107726;23;20410;-82
2023/05/17 03:19:55;;;;;;;;;;;;;;;;;;6081745;23;19921;-82
2023/05/17 03:22:24;;;;;;;;;;;;;;;;;;6083764;23;19932;-82
2023/05/17 03:24:51;;;;;;;;;;;;;;;;;;6106809;23;19924;-82
2023/05/17 03:27:18;;;;;;;;;;;;;;;;;;6082644;23;19921;-82
2023/05/17 03:30:05;;;;;;;;;;;;;;;;;;6084840;23;19950;-82
2023/05/17 03:32:37;;;;;;;;;;;;;;;;;;6130707;23;20249;-82
2023/05/17 03:35:05;;;;;;;;;;;;;;;;;;6083024;23;19921;-82
2023/05/17 03:37:34;;;;;;;;;;;;;;;;;;6083332;23;19978;-82
2023/05/17 03:40:02;;;;;;;;;;;;;;;;;;6082720;23;19925;-82
2023/05/17 03:42:31;;;;;;;;;;;;;;;;;;6106495;23;19925;-82
2023/05/17 03:45:05;;;;;;;;;;;;;;;;;;6083275;23;19929;-82
2023/05/17 03:47:34;;;;;;;;;;;;;;;;;;6083193;23;20250;-82
2023/05/17 03:50:01;;;;;;;;;;;;;;;;;;6082688;23;19925;-82
2023/05/17 03:52:30;;;;;;;;;;;;;;;;;;6082466;23;19935;-82
2023/05/17 03:55:00;;;;;;;;;;;;;;;;;;6082327;23;20350;-82
2023/05/17 03:57:29;;;;;;;;;;;;;;;;;;6107311;23;19921;-82
2023/05/17 03:59:57;;;;;;;;;;;;;;;;;;6082668;23;20257;-82
2023/05/17 04:02:27;;;;;;;;;;;;;;;;;;6116783;23;19921;-82
2023/05/17 04:05:22;;;;;;;;;;;;;;;;;;6097512;23;19921;-82
2023/05/17 04:07:50;;;;;;;;;;;;;;;;;;6133559;23;19928;-82
2023/05/17 04:10:19;;;;;;;;;;;;;;;;;;6083763;23;19921;-81
2023/05/17 04:12:46;;;;;;;;;;;;;;;;;;6107544;23;20249;-81
2023/05/17 04:15:13;;;;;;;;;;;;;;;;;;6109980;23;19927;-81
2023/05/17 04:17:45;;;;;;;;;;;;;;;;;;6084832;23;19927;-81
2023/05/17 04:20:13;;;;;;;;;;;;;;;;;;6112343;23;19921;-81
2023/05/17 04:22:40;;;;;;;;;;;;;;;;;;6084156;23;20372;-81
2023/05/17 04:25:10;;;;;;;;;;;;;;;;;;6109539;23;19921;-81
2023/05/17 04:27:39;;;;;;;;;;;;;;;;;;6083495;23;20341;-81
2023/05/17 04:30:14;;;;;;;;;;;;;;;;;;6134460;23;20364;-81
2023/05/17 04:32:41;;;;;;;;;;;;;;;;;;6084057;23;19921;-81
2023/05/17 04:35:11;;;;;;;;;;;;;;;;;;6084794;23;19921;-81
2023/05/17 04:37:39;;;;;;;;;;;;;;;;;;6108276;23;19925;-81
2023/05/17 04:40:18;;;;;;;;;;;;;;;;;;6087027;23;19921;-80
2023/05/17 04:42:49;;;;;;;;;;;;;;;;;;6110973;23;20005;-80
2023/05/17 04:45:20;;;;;;;;;;;;;;;;;;6109949;23;19921;-80
2023/05/17 04:47:49;;;;;;;;;;;;;;;;;;6085343;23;19921;-81
2023/05/17 04:50:17;;;;;;;;;;;;;;;;;;6083071;23;19925;-82
2023/05/17 04:52:44;;;;;;;;;;;;;;;;;;6107477;23;20615;-82
2023/05/17 04:55:12;;;;;;;;;;;;;;;;;;6082771;23;19925;-82
2023/05/17 04:57:39;;;;;;;;;;;;;;;;;;6082280;23;19944;-82
2023/05/17 05:00:10;;;;;;;;;;;;;;;;;;6080930;23;19921;-82
2023/05/17 05:02:42;;;;;;;;;;;;;;;;;;6080522;23;19927;-82
2023/05/17 05:05:13;;;;;;;;;;;;;;;;;;6113246;23;19921;-82
2023/05/17 05:07:42;;;;;;;;;;;;;;;;;;6079088;23;19929;-82
2023/05/17 05:10:12;;;;;;;;;;;;;;;;;;6102678;23;19921;-82
2023/05/17 05:12:40;;;;;;;;;;;;;;;;;;6077439;23;20384;-82
2023/05/17 05:15:11;;;;;;;;;;;;;;;;;;6075837;23;19924;-83
2023/05/17 05:17:40;;;;;;;;;;;;;;;;;;6077416;23;20254;-82
2023/05/17 05:20:08;;;;;;;;;;;;;;;;;;6074777;23;19921;-82
2023/05/17 05:22:38;;;;;;;;;;;;;;;;;;6109655;23;19928;-82
2023/05/17 05:25:06;;;;;;;;;;;;;;;;;;6076429;23;19928;-82
2023/05/17 05:27:34;;;;;;;;;;;;;;;;;;6081033;23;19921;-82
2023/05/17 05:30:01;;;;;;;;;;;;;;;;;;6124067;23;19920;-83
2023/05/17 05:32:36;;;;;;;;;;;;;;;;;;6135034;23;19924;-83
2023/05/17 05:35:06;;;;;;;;;;;;;;;;;;6100623;23;19921;-83
2023/05/17 05:37:34;;;;;;;;;;;;;;;;;;6100175;23;19927;-83
2023/05/17 05:40:04;;;;;;;;;;;;;;;;;;6074966;23;19925;-84
2023/05/17 05:42:31;;;;;;;;;;;;;;;;;;6100667;23;19925;-83
2023/05/17 05:44:58;;;;;;;;;;;;;;;;;;6075861;23;20364;-83
2023/05/17 05:47:26;;;;;;;;;;;;;;;;;;6123051;23;19936;-83
2023/05/17 05:49:54;;;;;;;;;;;;;;;;;;6099960;23;20384;-83
2023/05/17 05:52:22;;;;;;;;;;;;;;;;;;6077112;23;19921;-83
2023/05/17 05:54:49;;;;;;;;;;;;;;;;;;6075782;23;19927;-83
2023/05/17 05:57:27;;;;;;;;;;;;;;;;;;6076769;23;19921;-83
2023/05/17 06:09:11;;;;;;;;;;;;;;;;;;;;;
2023/05/17 06:12:04;;;;;;;;;;;;;;;;;;6147140;23;19921;-81
2023/05/17 06:14:33;;;;;;;;;;;;;;;;;;6086980;23;19931;-81
2023/05/17 06:17:00;;;;;;;;;;;;;;;;;;6108840;23;19931;-81
2023/05/17 06:19:36;;;;;;;;;;;;;;;;;;6084896;23;19929;-81
2023/05/17 06:22:03;;;;;;;;;;;;;;;;;;6108911;23;19921;-81
2023/05/17 06:24:34;;;;;;;;;;;;;;;;;;6086601;23;20344;-81
2023/05/17 06:27:12;;;;;;;;;;;;;;;;;;6086228;23;20350;-81
2023/05/17 06:29:56;;;;;;;;;;;;;;;;;;6081780;23;19947;-82
2023/05/17 06:32:45;;;;;;;;;;;;;;;;;;6098061;23;20253;-83
2023/05/17 06:35:15;;;;;;;;;;;;;;;;;;6066761;23;19931;-82
2023/05/17 06:38:07;;;;;;;;;;;;;;;;;;6081863;23;19931;-81
2023/05/17 06:40:40;;;;;;;;;;;;;;;;;;6108118;23;19924;-81
2023/05/17 06:43:10;;;;;;;;;;;;;;;;;;6109255;23;19928;-80
2023/05/17 06:45:37;;;;;;;;;;;;;;;;;;6058542;23;19925;-80
2023/05/17 06:48:04;;;;;;;;;;;;;;;;;;6130217;23;19925;-81
2023/05/17 06:50:31;;;;;;;;;;;;;;;;;;6102336;23;19931;-81
2023/05/17 06:53:01;;;;;;;;;;;;;;;;;;6133048;23;19921;-81
2023/05/17 06:55:28;;;;;;;;;;;;;;;;;;6084495;23;19921;-81
2023/05/17 06:58:01;;;;;;;;;;;;;;;;;;6084634;23;19921;-81
2023/05/17 07:00:31;;;;;;;;;;;;;;;;;;6083188;23;19921;-81
2023/05/17 07:02:58;;;;;;;;;;;;;;;;;;6108612;23;19921;-81
2023/05/17 07:05:27;;;;;;;;;;;;;;;;;;6134450;23;19921;-81
2023/05/17 07:07:57;;;;;;;;;;;;;;;;;;6110895;23;19921;-81
2023/05/17 07:10:30;;;;;;;;;;;;;;;;;;6110374;23;19921;-81
2023/05/17 07:12:59;;;;;;;;;;;;;;;;;;6084181;23;19921;-81
2023/05/17 07:15:27;;;;;;;;;;;;;;;;;;6136724;23;19921;-81
2023/05/17 07:18:00;;;;;;;;;;;;;;;;;;6078377;23;19921;-82
2023/05/17 07:20:27;;;;;;;;;;;;;;;;;;6099303;23;19921;-84
2023/05/17 07:22:55;;;;;;;;;;;;;;;;;;6097382;23;19928;-84
2023/05/17 07:25:24;;;;;;;;;;;;;;;;;;6074915;23;19921;-84
2023/05/17 07:27:53;;;;;;;;;;;;;;;;;;6074032;23;19936;-84
2023/05/17 07:30:20;;;;;;;;;;;;;;;;;;6073483;23;19921;-84
2023/05/17 07:32:49;;;;;;;;;;;;;;;;;;6097435;23;20642;-84
2023/05/17 07:35:16;;;;;;;;;;;;;;;;;;6072365;23;19931;-84
2023/05/17 07:37:46;;;;;;;;;;;;;;;;;;6106870;23;19925;-84
2023/05/17 07:40:13;;;;;;;;;;;;;;;;;;6071795;23;19929;-82
2023/05/17 07:42:43;;;;;;;;;;;;;;;;;;6097649;23;20372;-83
2023/05/17 07:45:10;;;;;;;;;;;;;;;;;;6073780;23;19928;-82
2023/05/17 07:47:39;;;;;;;;;;;;;;;;;;6124767;23;19921;-83
2023/05/17 07:50:08;;;;;;;;;;;;;;;;;;6095756;23;19920;-83
2023/05/17 07:52:40;;;;;;;;;;;;;;;;;;6098558;23;19943;-84
2023/05/17 07:55:11;;;;;;;;;;;;;;;;;;6076787;23;19921;-82
2023/05/17 07:57:42;;;;;;;;;;;;;;;;;;6080990;23;19925;-81
2023/05/17 08:00:13;;;;;;;;;;;;;;;;;;6112753;23;19921;-81
2023/05/17 08:02:40;;;;;;;;;;;;;;;;;;6113589;23;20367;-81
2023/05/17 08:05:09;;;;;;;;;;;;;;;;;;6113923;23;19925;-81
2023/05/17 08:07:36;;;;;;;;;;;;;;;;;;6089044;23;19927;-81
2023/05/17 08:10:12;;;;;;;;;;;;;;;;;;6088738;23;19935;-82
2023/05/17 08:12:42;;;;;;;;;;;;;;;;;;6114277;23;19921;-82
2023/05/17 08:15:09;;;;;;;;;;;;;;;;;;6089974;23;19920;-82
2023/05/17 08:17:39;;;;;;;;;;;;;;;;;;6113613;23;20692;-82
2023/05/17 08:20:07;;;;;;;;;;;;;;;;;;6088615;23;19927;-82
2023/05/17 08:22:35;;;;;;;;;;;;;;;;;;6122935;23;19925;-82
2023/05/17 08:25:05;;;;;;;;;;;;;;;;;;6104969;23;19921;-82
2023/05/17 08:27:37;;;;;;;;;;;;;;;;;;6102499;23;19925;-83
2023/05/17 08:36:24;;;;;;;;;;;;;;;;;;6108698;23;19917;-82
2023/05/17 08:38:56;;;;;;;;;;;;;;;;;;6102150;23;19927;-81
2023/05/17 08:41:24;;;;;;;;;;;;;;;;;;6087517;23;19925;-81
2023/05/17 08:43:57;;;;;;;;;;;;;;;;;;6150077;23;19928;-81
2023/05/17 08:46:25;;;;;;;;;;;;;;;;;;6113402;23;20364;-81
2023/05/17 08:48:58;;;;;;;;;;;;;;;;;;6114470;23;19921;-81
2023/05/17 08:51:28;;;;;;;;;;;;;;;;;;6122277;23;19921;-81
2023/05/17 08:53:57;;;;;;;;;;;;;;;;;;6089777;23;19921;-81
2023/05/17 08:56:24;;;;;;;;;;;;;;;;;;6112542;23;19931;-81
2023/05/17 08:58:56;;;;;;;;;;;;;;;;;;6091819;23;19921;-81
2023/05/17 09:01:25;;;;;;;;;;;;;;;;;;6090282;23;19921;-81
2023/05/17 09:03:52;;;;;;;;;;;;;;;;;;6116626;23;19921;-81
2023/05/17 09:06:23;;;;;;;;;;;;;;;;;;6082600;23;19961;-82
2023/05/17 09:26:08;;;;;;;;;;;;;;;;;;;;;
2023/05/17 09:42:25;;;;;;;;;;;;;;;;;;5948870;24;19922;-80
2023/05/17 09:48:19;;;;;;;;;;;;;;;;;;5970247;24;19922;-80
2023/05/17 09:54:20;;;;;;;;;;;;;;;;;;5965039;23;19926;-81
2023/05/17 09:57:23;;;;;;;;;;;;;;;;;;6116871;23;19929;-81
2023/05/17 10:00:07;;;;;;;;;;;;;;;;;;6142575;23;19921;-81
2023/05/17 10:02:39;;;;;;;;;;;;;;;;;;6150018;23;19925;-81
2023/05/17 10:05:44;;;;;;;;;;;;;;;;;;6113381;23;19935;-81
2023/05/17 10:08:48;;;;;;;;;;;;;;;;;;6139569;23;19920;-81
2023/05/17 10:12:04;;;;;;;;;;;;;;;;;;6097097;23;19927;-81
2023/05/17 10:14:59;;;;;;;;;;;;;;;;;;6123205;23;19921;-81
2023/05/17 10:18:00;;;;;;;;;;;;;;;;;;6066064;23;19951;-81
2023/05/17 10:25:40;;;;;;;;;;;;;;;;;;5964450;24;19946;-82
2023/05/17 10:32:03;;;;;;;;;;;;;;;;;;5928173;24;19933;-81
2023/05/17 10:35:17;;;;;;;;;;;;;;;;;;;;;
2023/05/17 10:37:48;;;;;;;;;;;;;;;;;;6023595;23;19922;-82
2023/05/17 10:40:22;;;;;;;;;;;;;;;;;;6022917;23;19922;-82
2023/05/17 10:53:35;;;;;;;;;;;;;;;;;;6114907;23;19920;-82
2023/05/17 11:00:20;;;;;;;;;;;;;;;;;;6050270;23;19925;-82
2023/05/17 11:03:01;;;;;;;;;;;;;;;;;;;;;
2023/05/17 11:06:16;;;;;;;;;;;;;;;;;;6131871;23;19935;-82
2023/05/17 11:09:22;;;;;;;;;;;;;;;;;;;;;
2023/05/17 11:39:39;;;;;;;;;;;;;;;;;;5956308;24;19919;-84
2023/05/17 11:42:06;;;;;;;;;;;;;;;;;;6001227;23;19921;-84
2023/05/17 11:44:33;;;;;;;;;;;;;;;;;;6117292;23;19931;-83
2023/05/17 11:47:03;;;;;;;;;;;;;;;;;;6133824;23;19921;-83
2023/05/17 11:49:33;;;;;;;;;;;;;;;;;;6158094;23;19921;-83
2023/05/17 11:52:00;;;;;;;;;;;;;;;;;;6142953;23;19921;-83
2023/05/17 11:54:27;;;;;;;;;;;;;;;;;;6109082;23;19931;-83
2023/05/17 11:56:55;;;;;;;;;;;;;;;;;;6108773;23;20353;-84
2023/05/17 11:59:25;;;;;;;;;;;;;;;;;;6108361;23;19921;-83
2023/05/17 12:01:55;;;;;;;;;;;;;;;;;;6109113;23;19920;-83
2023/05/17 12:04:25;;;;;;;;;;;;;;;;;;6134013;23;19928;-83
2023/05/17 12:06:55;;;;;;;;;;;;;;;;;;6133833;23;19925;-82
2023/05/17 12:09:25;;;;;;;;;;;;;;;;;;6133659;23;19921;-81
2023/05/17 12:11:52;;;;;;;;;;;;;;;;;;6132352;23;19921;-82
2023/05/17 12:14:20;;;;;;;;;;;;;;;;;;6109268;23;19929;-82
2023/05/17 12:16:47;;;;;;;;;;;;;;;;;;6158479;23;19929;-82
2023/05/17 12:19:18;;;;;;;;;;;;;;;;;;6157349;23;19947;-82
2023/05/17 12:21:46;;;;;;;;;;;;;;;;;;6166720;23;19928;-82
2023/05/17 12:24:13;;;;;;;;;;;;;;;;;;6108314;23;19924;-82
2023/05/17 12:27:00;;;;;;;;;;;;;;;;;;6134755;23;19943;-82
2023/05/17 12:29:37;;;;;;;;;;;;;;;;;;6137636;23;19920;-83
2023/05/17 12:32:08;;;;;;;;;;;;;;;;;;6133856;23;20329;-82
2023/05/17 12:34:35;;;;;;;;;;;;;;;;;;6161192;23;19920;-82
2023/05/17 12:37:08;;;;;;;;;;;;;;;;;;6111763;23;19944;-82
2023/05/17 12:39:38;;;;;;;;;;;;;;;;;;6110830;23;19925;-82
2023/05/17 12:42:10;;;;;;;;;;;;;;;;;;6134552;23;19921;-82
2023/05/17 12:44:38;;;;;;;;;;;;;;;;;;6136879;23;19925;-82
2023/05/17 12:47:09;;;;;;;;;;;;;;;;;;6112996;23;20537;-82
2023/05/17 12:49:39;;;;;;;;;;;;;;;;;;6164604;23;19924;-83
2023/05/17 12:52:08;;;;;;;;;;;;;;;;;;6162337;23;19925;-82
2023/05/17 12:54:37;;;;;;;;;;;;;;;;;;6171315;23;19920;-82
2023/05/17 12:57:12;;;;;;;;;;;;;;;;;;6111868;23;19920;-82
2023/05/17 12:59:47;;;;;;;;;;;;;;;;;;6165383;23;19921;-83
2023/05/17 13:02:15;;;;;;;;;;;;;;;;;;6114218;23;19925;-82
2023/05/17 13:04:45;;;;;;;;;;;;;;;;;;6137468;23;20365;-82
2023/05/17 13:07:12;;;;;;;;;;;;;;;;;;6114918;23;19920;-82
2023/05/17 13:09:45;;;;;;;;;;;;;;;;;;6137608;23;19921;-82
2023/05/17 13:12:12;;;;;;;;;;;;;;;;;;6116153;23;19921;-82
2023/05/17 13:14:40;;;;;;;;;;;;;;;;;;6109017;23;20256;-82
2023/05/17 13:17:09;;;;;;;;;;;;;;;;;;6108556;23;19921;-82
2023/05/17 13:19:39;;;;;;;;;;;;;;;;;;6131856;23;19924;-82
2023/05/17 13:22:06;;;;;;;;;;;;;;;;;;6133334;23;20261;-82
2023/05/17 13:24:33;;;;;;;;;;;;;;;;;;6109129;23;19927;-82
2023/05/17 13:27:00;;;;;;;;;;;;;;;;;;6134311;23;19973;-82
2023/05/17 13:29:29;;;;;;;;;;;;;;;;;;6133926;23;19920;-83
2023/05/17 13:31:56;;;;;;;;;;;;;;;;;;6110763;23;19927;-82
2023/05/17 13:34:25;;;;;;;;;;;;;;;;;;6158546;23;19924;-82
2023/05/17 13:36:55;;;;;;;;;;;;;;;;;;6110208;23;19924;-83
2023/05/17 13:39:25;;;;;;;;;;;;;;;;;;6109516;23;19932;-83
2023/05/17 13:41:54;;;;;;;;;;;;;;;;;;6133895;23;19924;-83
2023/05/17 13:44:26;;;;;;;;;;;;;;;;;;6110310;23;19921;-83
2023/05/17 13:46:55;;;;;;;;;;;;;;;;;;6134371;23;19921;-83
2023/05/17 13:49:22;;;;;;;;;;;;;;;;;;6134262;23;19921;-83
2023/05/17 13:51:51;;;;;;;;;;;;;;;;;;6134049;23;20269;-83
2023/05/17 13:54:19;;;;;;;;;;;;;;;;;;6133646;23;19920;-83
2023/05/17 13:56:46;;;;;;;;;;;;;;;;;;6132744;23;19931;-83
2023/05/17 13:59:16;;;;;;;;;;;;;;;;;;6108776;23;20256;-82
2023/05/17 14:01:45;;;;;;;;;;;;;;;;;;6132071;23;19921;-82
2023/05/17 14:04:12;;;;;;;;;;;;;;;;;;6134625;23;20335;-83
2023/05/17 14:06:41;;;;;;;;;;;;;;;;;;6109724;23;19920;-82
2023/05/17 14:18:37;;;;;;;;;;;;;;;;;;6128223;23;19921;-81
2023/05/17 14:28:51;;;;;;;;;;;;;;;;;;6135830;23;19924;-81
2023/05/17 14:31:52;;;;;;;;;;;;;;;;;;;;;
2023/05/17 14:34:36;;;;;;;;;;;;;;;;;;5987491;23;19971;-81
2023/05/17 14:57:52;;;;;;;;;;;;;;;;;;6162289;23;19927;-81
2023/05/17 15:00:19;;;;;;;;;;;;;;;;;;6125799;23;19921;-83
2023/05/17 15:02:48;;;;;;;;;;;;;;;;;;6108471;23;19921;-82
2023/05/17 15:05:17;;;;;;;;;;;;;;;;;;6108916;23;19939;-82
2023/05/17 15:07:44;;;;;;;;;;;;;;;;;;6132308;23;20405;-82
2023/05/17 15:10:11;;;;;;;;;;;;;;;;;;6158441;23;20253;-82
2023/05/17 15:12:39;;;;;;;;;;;;;;;;;;6107923;23;20360;-83
2023/05/17 15:15:11;;;;;;;;;;;;;;;;;;6133630;23;19928;-82
2023/05/17 15:17:38;;;;;;;;;;;;;;;;;;6108305;23;20253;-82
2023/05/17 15:20:07;;;;;;;;;;;;;;;;;;6108140;23;19935;-83
2023/05/17 15:22:35;;;;;;;;;;;;;;;;;;6134033;23;19951;-83
2023/05/17 15:25:02;;;;;;;;;;;;;;;;;;6109529;23;19925;-83
2023/05/17 15:27:30;;;;;;;;;;;;;;;;;;6134289;23;20268;-83
2023/05/17 15:30:02;;;;;;;;;;;;;;;;;;6132169;23;19924;-83
2023/05/17 15:32:31;;;;;;;;;;;;;;;;;;6130684;23;19920;-82
2023/05/17 15:35:00;;;;;;;;;;;;;;;;;;6132887;23;19920;-82
2023/05/17 15:37:27;;;;;;;;;;;;;;;;;;6106951;23;19921;-82
2023/05/17 15:39:54;;;;;;;;;;;;;;;;;;6132589;23;19920;-83
2023/05/17 15:42:24;;;;;;;;;;;;;;;;;;6106640;23;19921;-84
2023/05/17 15:44:53;;;;;;;;;;;;;;;;;;6107956;23;19920;-83
2023/05/17 15:47:20;;;;;;;;;;;;;;;;;;6159299;23;19927;-83
2023/05/17 16:09:05;;;;;;;;;;;;;;;;;;6089098;23;19943;-79
2023/05/17 16:11:32;;;;;;;;;;;;;;;;;;6057452;23;19922;-80
2023/05/17 16:14:02;;;;;;;;;;;;;;;;;;6028386;23;19929;-80
2023/05/17 16:16:29;;;;;;;;;;;;;;;;;;6081224;23;19928;-80
2023/05/17 16:19:04;;;;;;;;;;;;;;;;;;6085722;23;19921;-80
2023/05/17 16:21:31;;;;;;;;;;;;;;;;;;6090787;23;20357;-80
2023/05/17 16:24:05;;;;;;;;;;;;;;;;;;6107554;23;19928;-82
2023/05/17 16:26:37;;;;;;;;;;;;;;;;;;6107730;23;20529;-82
2023/05/17 18:32:55;;;;;;;;;;;;;;;;;;6187964;23;19921;-92
2023/05/17 18:35:22;;;;;;;;;;;;;;;;;;6187621;23;19921;-93
2023/05/17 18:37:52;;;;;;;;;;;;;;;;;;6150439;23;19909;-94
2023/05/17 18:40:25;;;;;;;;;;;;;;;;;;6139315;23;19925;-93
2023/05/17 18:42:52;;;;;;;;;;;;;;;;;;6174518;23;19911;-93
2023/05/17 18:45:20;;;;;;;;;;;;;;;;;;6177549;23;19921;-91
2023/05/17 18:47:48;;;;;;;;;;;;;;;;;;6176388;23;19920;-90
2023/05/17 18:50:16;;;;;;;;;;;;;;;;;;6154894;23;19948;-90
2023/05/17 18:52:43;;;;;;;;;;;;;;;;;;6156505;23;19931;-93
2023/05/17 18:55:11;;;;;;;;;;;;;;;;;;6156743;23;19919;-92
2023/05/17 18:57:41;;;;;;;;;;;;;;;;;;6181477;23;19960;-91
2023/05/17 19:00:09;;;;;;;;;;;;;;;;;;6190694;23;19948;-92
2023/05/17 19:02:36;;;;;;;;;;;;;;;;;;6180376;23;19915;-92
2023/05/17 19:05:06;;;;;;;;;;;;;;;;;;6156005;23;19939;-92
2023/05/17 19:07:39;;;;;;;;;;;;;;;;;;6183142;23;19989;-92
2023/05/17 19:10:06;;;;;;;;;;;;;;;;;;6188449;23;19926;-91
2023/05/17 19:12:35;;;;;;;;;;;;;;;;;;6187519;23;19925;-92
2023/05/17 19:15:02;;;;;;;;;;;;;;;;;;6154203;23;19909;-92
2023/05/17 19:17:29;;;;;;;;;;;;;;;;;;6152174;23;19918;-91
2023/05/17 19:20:01;;;;;;;;;;;;;;;;;;6152799;23;19909;-91
2023/05/17 19:22:30;;;;;;;;;;;;;;;;;;6178878;23;19927;-92
2023/05/17 19:24:59;;;;;;;;;;;;;;;;;;6179736;23;20003;-92
2023/05/17 19:27:26;;;;;;;;;;;;;;;;;;6179001;23;19944;-93
2023/05/17 19:29:53;;;;;;;;;;;;;;;;;;6179960;23;19973;-93
2023/05/17 19:32:26;;;;;;;;;;;;;;;;;;6155861;23;19956;-92
2023/05/17 19:34:53;;;;;;;;;;;;;;;;;;6153955;23;20216;-94
2023/05/17 19:37:20;;;;;;;;;;;;;;;;;;6155629;23;19921;-93
2023/05/17 19:39:50;;;;;;;;;;;;;;;;;;6149601;23;19920;-94
2023/05/17 19:42:22;;;;;;;;;;;;;;;;;;6128117;23;19951;-94
2023/05/17 19:44:52;;;;;;;;;;;;;;;;;;6163172;23;19928;-95
2023/05/17 19:47:19;;;;;;;;;;;;;;;;;;6144008;23;19948;-94
2023/05/17 19:49:46;;;;;;;;;;;;;;;;;;6181141;23;20217;-95
2023/05/17 19:52:14;;;;;;;;;;;;;;;;;;6156226;23;19972;-93
2023/05/17 19:54:45;;;;;;;;;;;;;;;;;;6131438;23;19928;-96
2023/05/17 19:57:16;;;;;;;;;;;;;;;;;;6184840;23;19940;-93
2023/05/17 19:59:45;;;;;;;;;;;;;;;;;;6155710;23;19964;-95
2023/05/17 20:02:29;;;;;;;;;;;;;;;;;;6181191;23;19952;-94
2023/05/17 20:10:25;;;;;;;;;;;;;;;;;;6078410;23;19927;-80
2023/05/17 20:12:54;;;;;;;;;;;;;;;;;;6076737;23;19921;-81
2023/05/17 20:15:25;;;;;;;;;;;;;;;;;;6103460;23;19936;-80
2023/05/17 20:17:55;;;;;;;;;;;;;;;;;;6112288;23;19928;-83
2023/05/17 20:20:22;;;;;;;;;;;;;;;;;;6072102;23;19925;-83
2023/05/17 20:22:52;;;;;;;;;;;;;;;;;;6095565;23;19922;-83
2023/05/17 20:25:19;;;;;;;;;;;;;;;;;;6095825;23;20289;-83
2023/05/17 20:27:46;;;;;;;;;;;;;;;;;;6095709;23;19925;-84
2023/05/17 21:00:56;;;;;;;;;;;;;;;;;;5959160;24;19915;-83
2023/05/17 21:03:26;;;;;;;;;;;;;;;;;;5943924;23;19933;-83
2023/05/17 21:05:53;;;;;;;;;;;;;;;;;;6070967;23;19925;-83
2023/05/17 21:08:20;;;;;;;;;;;;;;;;;;6075247;23;19921;-83
2023/05/17 21:10:51;;;;;;;;;;;;;;;;;;6098234;23;19928;-83
2023/05/17 21:13:20;;;;;;;;;;;;;;;;;;6053401;23;20346;-82
2023/05/17 21:15:50;;;;;;;;;;;;;;;;;;6127046;23;19921;-82
2023/05/17 21:18:18;;;;;;;;;;;;;;;;;;6100762;23;19932;-82
2023/05/17 21:20:54;;;;;;;;;;;;;;;;;;6076604;23;20274;-82
2023/05/17 21:23:21;;;;;;;;;;;;;;;;;;6136838;23;19925;-82
2023/05/17 21:25:51;;;;;;;;;;;;;;;;;;6100245;23;19970;-83
2023/05/17 21:28:44;;;;;;;;;;;;;;;;;;6074840;23;19955;-82
2023/05/17 21:31:36;;;;;;;;;;;;;;;;;;6099349;23;19925;-82
2023/05/17 21:34:04;;;;;;;;;;;;;;;;;;6100664;23;19921;-82
2023/05/17 21:36:32;;;;;;;;;;;;;;;;;;6100053;23;19921;-82
2023/05/17 21:38:59;;;;;;;;;;;;;;;;;;6075419;23;20352;-82
2023/05/17 21:41:28;;;;;;;;;;;;;;;;;;6101016;23;19929;-82
2023/05/17 21:43:59;;;;;;;;;;;;;;;;;;6078797;23;19921;-82
2023/05/17 22:21:03;;;;;;;;;;;;;;;;;;6152552;23;19924;-83
2023/05/17 22:23:30;;;;;;;;;;;;;;;;;;6102838;23;19921;-83
2023/05/17 22:25:59;;;;;;;;;;;;;;;;;;6126742;23;20116;-83
2023/05/17 22:28:26;;;;;;;;;;;;;;;;;;6127184;23;19921;-83
2023/05/17 22:30:55;;;;;;;;;;;;;;;;;;6177368;23;19926;-83
2023/05/17 22:33:22;;;;;;;;;;;;;;;;;;6132034;23;19920;-83
2023/05/17 22:35:52;;;;;;;;;;;;;;;;;;6132362;23;19920;-84
2023/05/17 22:38:24;;;;;;;;;;;;;;;;;;6157963;23;20242;-83
2023/05/17 22:40:51;;;;;;;;;;;;;;;;;;6156098;23;19920;-83
2023/05/17 22:43:24;;;;;;;;;;;;;;;;;;6134310;23;19924;-83
2023/05/17 22:45:52;;;;;;;;;;;;;;;;;;6156604;23;19927;-83
2023/05/17 22:48:22;;;;;;;;;;;;;;;;;;6184206;23;19928;-84
2023/05/17 22:50:49;;;;;;;;;;;;;;;;;;6156044;23;19920;-84
2023/05/17 22:53:17;;;;;;;;;;;;;;;;;;6156684;23;19927;-84
2023/05/17 22:55:47;;;;;;;;;;;;;;;;;;6183045;23;19920;-84
2023/05/17 22:58:22;;;;;;;;;;;;;;;;;;6157170;23;19920;-84
2023/05/17 23:00:55;;;;;;;;;;;;;;;;;;6133421;23;19927;-82
2023/05/17 23:03:22;;;;;;;;;;;;;;;;;;6134390;23;20278;-82
2023/05/17 23:05:50;;;;;;;;;;;;;;;;;;6135413;23;19920;-83
2023/05/17 23:08:17;;;;;;;;;;;;;;;;;;6160751;23;19924;-82
2023/05/17 23:10:48;;;;;;;;;;;;;;;;;;6134102;23;19920;-82